Ebenezer, Pennsylvania
Current Conditions -  °F | °C
As of 1:50 PM on Thursday 23 Oct 2014 (Local Time) from KMUI Reporting Station
Overcast Overcast  
Wind Chill: 57°   Ceiling: 3000
Heat Index: 57°   Visibility: 10mi
Dew Point: 48°   Wind: 10mph
Humidity: 72%   Direction: 350°N
Pressure: 29.83"   Gusts: 21mph
Location:  40.2957°N, 76.4189°W
Report Text: KMUI 231750Z AUTO 35009G18KT 290V030 10SM OVC030 14/09 A2983 RMK AO2 $
Loading
Personal Weather Stations






























Interactive Weather Map
Tropical Storm Tracking
New forecast layout! Learn more

10-Day Weather Forecast

Advertisements
Track Severe Weather on mobile